createdAt,value
2023-01-05T00:00:22.172Z,0.00
2023-01-05T00:01:22.160Z,0.00
2023-01-05T00:02:24.583Z,0.00
2023-01-05T00:03:22.206Z,0.00
2023-01-05T00:04:22.265Z,0.00
2023-01-05T00:05:22.247Z,0.00
2023-01-05T00:06:22.294Z,0.00
2023-01-05T00:07:22.298Z,0.00
2023-01-05T00:08:22.316Z,0.00
2023-01-05T00:09:22.347Z,0.00
2023-01-05T00:10:22.362Z,0.00
2023-01-05T00:11:22.382Z,0.00
2023-01-05T00:12:22.422Z,0.00
2023-01-05T00:13:22.427Z,0.00
2023-01-05T00:14:22.455Z,0.00
2023-01-05T00:15:22.478Z,0.00
2023-01-05T00:16:22.547Z,0.00
2023-01-05T00:17:22.533Z,0.00
2023-01-05T00:18:22.546Z,0.00
2023-01-05T00:19:22.571Z,0.00
2023-01-05T00:20:22.596Z,0.00
2023-01-05T00:21:22.617Z,0.00
2023-01-05T00:22:22.639Z,0.00
2023-01-05T00:23:22.661Z,0.00
2023-01-05T00:24:22.689Z,0.00
2023-01-05T00:25:22.711Z,0.00
2023-01-05T00:26:22.727Z,0.00
2023-01-05T00:27:22.748Z,0.00
2023-01-05T00:28:22.771Z,0.00
2023-01-05T00:29:22.797Z,0.00
2023-01-05T00:30:22.818Z,0.00
2023-01-05T00:31:22.912Z,0.00
2023-01-05T00:32:22.861Z,0.00
2023-01-05T00:33:22.893Z,0.00
2023-01-05T00:34:22.911Z,0.00
2023-01-05T00:35:22.934Z,0.00
2023-01-05T00:36:22.955Z,0.00
2023-01-05T00:37:22.984Z,0.00
2023-01-05T00:38:23.009Z,0.00
2023-01-05T00:39:23.029Z,0.00
2023-01-05T00:40:23.068Z,0.00
2023-01-05T00:41:23.065Z,0.00
2023-01-05T00:42:23.108Z,0.00
2023-01-05T00:43:23.115Z,0.00
2023-01-05T00:44:23.135Z,0.00
2023-01-05T00:45:23.155Z,0.00
2023-01-05T00:46:23.236Z,0.00
2023-01-05T00:47:23.205Z,0.00
2023-01-05T00:48:23.228Z,0.00
2023-01-05T00:49:23.256Z,0.00
2023-01-05T00:50:23.278Z,0.00
2023-01-05T00:51:23.307Z,0.00
2023-01-05T00:52:23.326Z,0.00
2023-01-05T00:53:23.342Z,0.00
2023-01-05T00:54:23.368Z,0.00
2023-01-05T00:55:23.385Z,0.00
2023-01-05T00:56:23.412Z,0.00
2023-01-05T00:57:23.433Z,0.00
2023-01-05T00:58:23.457Z,0.00
2023-01-05T00:59:23.497Z,0.00
2023-01-05T01:00:23.508Z,0.00
2023-01-05T01:01:23.661Z,0.00
2023-01-05T01:02:23.723Z,0.00
2023-01-05T01:03:23.615Z,0.00
2023-01-05T01:04:23.593Z,0.00
2023-01-05T01:05:23.631Z,0.00
2023-01-05T01:06:23.642Z,0.00
2023-01-05T01:07:23.656Z,0.00
2023-01-05T01:08:23.678Z,0.00
2023-01-05T01:09:23.717Z,0.00
2023-01-05T01:10:23.790Z,0.00
2023-01-05T01:11:23.748Z,0.00
2023-01-05T01:12:23.785Z,0.00
2023-01-05T01:13:23.834Z,0.00
2023-01-05T01:14:23.821Z,0.00
2023-01-05T01:15:23.868Z,0.00
2023-01-05T01:16:23.910Z,0.00
2023-01-05T01:17:23.886Z,0.00
2023-01-05T01:18:23.906Z,0.00
2023-01-05T01:19:23.942Z,0.00
2023-01-05T01:20:23.966Z,0.00
2023-01-05T01:21:23.971Z,0.00
2023-01-05T01:22:23.998Z,0.00
2023-01-05T01:23:24.019Z,0.00
2023-01-05T01:24:24.042Z,0.00
2023-01-05T01:25:24.069Z,0.00
2023-01-05T01:26:24.105Z,0.00
2023-01-05T01:27:24.142Z,0.00
2023-01-05T01:28:24.135Z,0.00
2023-01-05T01:29:24.174Z,0.00
2023-01-05T01:30:24.208Z,0.00
2023-01-05T01:31:24.198Z,0.00
2023-01-05T01:32:24.232Z,0.00
2023-01-05T01:33:24.272Z,0.00
2023-01-05T01:34:24.278Z,0.00
2023-01-05T01:35:24.298Z,0.00
2023-01-05T01:36:24.311Z,0.00
2023-01-05T01:37:24.349Z,0.00
2023-01-05T01:38:24.359Z,0.00
2023-01-05T01:39:24.379Z,0.00
2023-01-05T01:40:24.401Z,0.00
2023-01-05T01:41:24.421Z,0.00
2023-01-05T01:42:24.458Z,0.00
2023-01-05T01:43:24.470Z,0.00
2023-01-05T01:44:24.493Z,0.00
2023-01-05T01:45:24.521Z,0.00
2023-01-05T01:46:24.588Z,0.00
2023-01-05T01:47:24.580Z,0.00
2023-01-05T01:48:24.595Z,0.00
2023-01-05T01:49:24.607Z,0.00
2023-01-05T01:50:24.632Z,0.00
2023-01-05T01:51:24.664Z,0.00
2023-01-05T01:52:24.675Z,0.00
2023-01-05T01:53:24.699Z,0.00
2023-01-05T01:54:24.723Z,0.00
2023-01-05T01:55:24.739Z,0.00
2023-01-05T01:56:24.764Z,0.00
2023-01-05T01:57:24.791Z,0.00
2023-01-05T01:58:24.817Z,0.00
2023-01-05T01:59:24.840Z,0.00
2023-01-05T02:00:24.859Z,0.00
2023-01-05T02:01:24.950Z,0.00
2023-01-05T02:02:25.083Z,0.00
2023-01-05T02:03:24.935Z,0.00
2023-01-05T02:04:24.985Z,0.00
2023-01-05T02:05:24.972Z,0.00
2023-01-05T02:06:25.004Z,0.00
2023-01-05T02:07:25.017Z,0.00
2023-01-05T02:08:25.040Z,0.00
2023-01-05T02:09:25.074Z,0.00
2023-01-05T02:10:25.114Z,0.00
2023-01-05T02:11:25.118Z,0.00
2023-01-05T02:12:25.140Z,0.00
2023-01-05T02:13:31.186Z,0.00
2023-01-05T02:14:25.180Z,0.00
2023-01-05T02:15:25.194Z,0.00
2023-01-05T02:16:25.259Z,0.00
2023-01-05T02:17:25.238Z,0.00
2023-01-05T02:18:25.270Z,0.00
2023-01-05T02:19:25.285Z,0.00
2023-01-05T02:20:25.306Z,0.00
2023-01-05T02:21:25.347Z,0.00
2023-01-05T02:22:25.371Z,0.00
2023-01-05T02:23:25.442Z,0.00
2023-01-05T02:24:25.398Z,0.00
2023-01-05T02:25:25.419Z,0.00
2023-01-05T02:26:25.449Z,0.00
2023-01-05T02:27:25.469Z,0.00
2023-01-05T02:28:25.489Z,0.00
2023-01-05T02:29:25.513Z,0.00
2023-01-05T02:30:25.584Z,0.00
2023-01-05T02:31:25.630Z,0.00
2023-01-05T02:32:25.580Z,0.00
2023-01-05T02:33:25.600Z,0.00
2023-01-05T02:34:25.626Z,0.00
2023-01-05T02:35:25.649Z,0.00
2023-01-05T02:36:28.724Z,0.00
2023-01-05T02:37:25.698Z,0.00
2023-01-05T02:38:25.721Z,0.00
2023-01-05T02:39:25.737Z,0.00
2023-01-05T02:40:25.759Z,0.00
2023-01-05T02:41:25.778Z,0.00
2023-01-05T02:42:25.806Z,0.00
2023-01-05T02:43:25.821Z,0.00
2023-01-05T02:44:25.846Z,0.00
2023-01-05T02:45:25.869Z,0.00
2023-01-05T02:46:25.939Z,0.00
2023-01-05T02:47:25.925Z,0.00
2023-01-05T02:48:25.937Z,0.00
2023-01-05T02:49:33.139Z,0.00
2023-01-05T02:51:19.461Z,0.00
2023-01-05T02:52:18.927Z,0.00
2023-01-05T02:54:22.946Z,0.00
2023-01-05T02:55:22.940Z,0.00
2023-01-05T02:57:27.432Z,0.00
2023-01-05T02:58:26.990Z,0.00
2023-01-05T03:00:30.990Z,0.00
2023-01-05T03:01:31.158Z,0.00
2023-01-05T03:03:35.536Z,0.00
2023-01-05T03:04:35.069Z,0.00
2023-01-05T03:06:39.075Z,0.00
2023-01-05T03:07:39.090Z,0.00
2023-01-05T03:09:43.573Z,0.00
2023-01-05T03:10:43.144Z,0.00
2023-01-05T03:12:47.115Z,0.00
2023-01-05T03:13:47.132Z,0.00
2023-01-05T03:15:51.656Z,0.00
2023-01-05T03:16:51.158Z,0.00
2023-01-05T03:18:55.178Z,0.00
2023-01-05T03:19:55.195Z,0.00
2023-01-05T03:21:48.676Z,0.00
2023-01-05T03:22:48.143Z,0.00
2023-01-05T03:24:52.148Z,0.00
2023-01-05T03:25:52.159Z,0.00
2023-01-05T03:27:57.167Z,0.00
2023-01-05T03:28:56.673Z,0.00
2023-01-05T03:29:56.699Z,0.00
2023-01-05T03:30:56.750Z,0.00
2023-01-05T03:31:56.745Z,0.00
2023-01-05T03:32:56.765Z,0.00
2023-01-05T03:33:56.790Z,0.00
2023-01-05T03:34:56.808Z,0.00
2023-01-05T03:35:56.830Z,0.00
2023-01-05T03:36:56.855Z,0.00
2023-01-05T03:37:56.884Z,0.00
2023-01-05T03:38:56.898Z,0.00
2023-01-05T03:39:56.929Z,0.00
2023-01-05T03:40:56.944Z,0.00
2023-01-05T03:41:56.962Z,0.00
2023-01-05T03:42:56.987Z,0.00
2023-01-05T03:43:57.012Z,0.00
2023-01-05T03:44:57.041Z,0.00
2023-01-05T03:45:57.089Z,0.00
2023-01-05T03:46:57.106Z,0.00
2023-01-05T03:47:57.104Z,0.00
2023-01-05T03:48:57.125Z,0.00
2023-01-05T03:49:57.147Z,0.00
2023-01-05T03:50:57.179Z,0.00
2023-01-05T03:51:57.191Z,0.00
2023-01-05T03:52:57.211Z,0.00
2023-01-05T03:53:57.235Z,0.00
2023-01-05T03:54:57.257Z,0.00
2023-01-05T03:55:57.278Z,0.00
2023-01-05T03:56:57.304Z,0.00
2023-01-05T03:57:57.327Z,0.00
2023-01-05T03:58:57.368Z,0.00
2023-01-05T03:59:57.381Z,0.00
2023-01-05T04:00:57.391Z,0.00
2023-01-05T04:01:57.553Z,0.00
2023-01-05T04:02:57.581Z,0.00
2023-01-05T04:03:57.527Z,0.00
2023-01-05T04:04:57.476Z,0.00
2023-01-05T04:05:57.508Z,0.00
2023-01-05T04:06:57.526Z,0.00
2023-01-05T04:07:57.560Z,0.00
2023-01-05T04:08:57.569Z,0.00
2023-01-05T04:09:57.589Z,0.00
2023-01-05T04:10:57.614Z,0.00
2023-01-05T04:11:57.641Z,0.00
2023-01-05T04:12:57.660Z,0.00
2023-01-05T04:13:57.680Z,0.00
2023-01-05T04:14:57.703Z,0.00
2023-01-05T04:15:57.768Z,0.00
2023-01-05T04:16:57.753Z,0.00
2023-01-05T04:17:57.763Z,0.00
2023-01-05T04:18:57.798Z,0.00
2023-01-05T04:19:57.817Z,0.00
2023-01-05T04:20:57.861Z,0.00
2023-01-05T04:21:57.857Z,0.00
2023-01-05T04:22:57.880Z,0.00
2023-01-05T04:23:57.901Z,0.00
2023-01-05T04:24:57.925Z,0.00
2023-01-05T04:25:57.975Z,0.00
2023-01-05T04:26:57.971Z,0.00
2023-01-05T04:27:57.987Z,0.00
2023-01-05T04:28:58.015Z,0.00
2023-01-05T04:29:58.033Z,0.00
2023-01-05T04:30:58.098Z,0.00
2023-01-05T04:31:58.080Z,0.00
2023-01-05T04:32:58.101Z,0.00
2023-01-05T04:33:58.125Z,0.00
2023-01-05T04:34:58.145Z,0.00
2023-01-05T04:35:58.174Z,0.00
2023-01-05T04:36:58.192Z,0.00
2023-01-05T04:37:58.211Z,0.00
2023-01-05T04:38:58.236Z,0.00
2023-01-05T04:39:58.263Z,0.00
2023-01-05T04:40:58.277Z,0.00
2023-01-05T04:41:58.301Z,0.00
2023-01-05T04:42:58.334Z,0.00
2023-01-05T04:43:58.351Z,0.00
2023-01-05T04:44:58.368Z,0.00
2023-01-05T04:45:58.419Z,0.00
2023-01-05T04:46:58.491Z,0.00
2023-01-05T04:47:58.435Z,0.00
2023-01-05T04:48:58.460Z,0.00
2023-01-05T04:49:58.483Z,0.00
2023-01-05T04:50:58.503Z,0.00
2023-01-05T04:51:58.529Z,0.00
2023-01-05T04:52:58.551Z,0.00
2023-01-05T04:53:58.585Z,0.00
2023-01-05T04:54:58.611Z,0.00
2023-01-05T04:55:58.629Z,0.00
2023-01-05T04:56:58.636Z,0.00
2023-01-05T04:57:58.659Z,0.00
2023-01-05T04:58:58.685Z,0.00
2023-01-05T04:59:58.703Z,0.00
2023-01-05T05:00:58.722Z,0.00
2023-01-05T05:01:58.851Z,0.00
2023-01-05T05:02:58.970Z,0.00
2023-01-05T05:03:58.832Z,0.00
2023-01-05T05:04:58.814Z,0.00
2023-01-05T05:05:58.853Z,0.00
2023-01-05T05:06:58.862Z,0.00
2023-01-05T05:07:58.882Z,0.00
2023-01-05T05:08:58.903Z,0.00
2023-01-05T05:09:58.928Z,0.00
2023-01-05T05:10:58.945Z,0.00
2023-01-05T05:11:58.970Z,0.00
2023-01-05T05:12:59.012Z,0.00
2023-01-05T05:13:59.018Z,0.00
2023-01-05T05:14:59.039Z,0.00
2023-01-05T05:15:59.115Z,0.00
2023-01-05T05:16:59.127Z,0.00
2023-01-05T05:18:02.825Z,0.00
2023-01-05T05:18:59.130Z,0.00
2023-01-05T05:19:59.155Z,0.00
2023-01-05T05:20:59.172Z,0.00
2023-01-05T05:21:59.213Z,0.00
2023-01-05T05:22:59.222Z,0.00
2023-01-05T05:23:59.241Z,0.00
2023-01-05T05:24:59.258Z,0.00
2023-01-05T05:25:59.280Z,0.00
2023-01-05T05:26:59.308Z,0.00
2023-01-05T05:27:59.340Z,0.00
2023-01-05T05:28:59.347Z,0.00
2023-01-05T05:29:59.373Z,0.00
2023-01-05T05:30:59.446Z,0.00
2023-01-05T05:31:59.421Z,0.00
2023-01-05T05:32:59.436Z,0.00
2023-01-05T05:33:59.463Z,0.00
2023-01-05T05:34:59.481Z,0.00
2023-01-05T05:35:59.506Z,0.00
2023-01-05T05:36:59.525Z,0.00
2023-01-05T05:37:59.558Z,0.00
2023-01-05T05:38:59.581Z,0.00
2023-01-05T05:39:59.602Z,0.00
2023-01-05T05:40:59.629Z,0.00
2023-01-05T05:41:59.633Z,0.00
2023-01-05T05:42:59.663Z,0.00
2023-01-05T05:43:59.688Z,0.00
2023-01-05T05:44:59.712Z,0.00
2023-01-05T05:45:59.725Z,0.00
2023-01-05T05:46:59.776Z,0.00
2023-01-05T05:47:59.769Z,0.00
2023-01-05T05:48:59.793Z,0.00
2023-01-05T05:49:59.816Z,0.00
2023-01-05T05:50:59.838Z,0.00
2023-01-05T05:51:59.875Z,0.00
2023-01-05T05:52:59.899Z,0.00
2023-01-05T05:53:59.912Z,0.00
2023-01-05T05:54:59.930Z,0.00
2023-01-05T05:55:59.989Z,0.00
2023-01-05T05:56:59.968Z,0.00
2023-01-05T05:57:59.996Z,0.00
2023-01-05T05:59:01.790Z,0.00
2023-01-05T06:00:00.045Z,0.00
2023-01-05T06:01:00.093Z,0.00
2023-01-05T06:02:00.221Z,0.00
2023-01-05T06:03:00.289Z,0.00
2023-01-05T06:04:00.164Z,0.00
2023-01-05T06:05:00.151Z,0.00
2023-01-05T06:06:00.173Z,0.00
2023-01-05T06:07:00.199Z,0.00
2023-01-05T06:08:00.218Z,0.00
2023-01-05T06:09:00.241Z,0.00
2023-01-05T06:10:00.261Z,0.00
2023-01-05T06:11:00.281Z,0.00
2023-01-05T06:12:00.333Z,0.00
2023-01-05T06:13:00.323Z,0.00
2023-01-05T06:14:00.358Z,0.00
2023-01-05T06:15:00.368Z,0.00
2023-01-05T06:16:00.482Z,0.00
2023-01-05T06:17:00.416Z,0.00
2023-01-05T06:18:00.443Z,0.00
2023-01-05T06:19:00.462Z,0.00
2023-01-05T06:20:00.481Z,0.00
2023-01-05T06:21:01.958Z,0.00
2023-01-05T06:22:00.528Z,0.00
2023-01-05T06:23:00.548Z,0.00
2023-01-05T06:24:00.573Z,0.00
2023-01-05T06:25:00.613Z,0.00
2023-01-05T06:26:00.623Z,0.00
2023-01-05T06:27:00.635Z,0.00
2023-01-05T06:28:00.669Z,0.00
2023-01-05T06:29:00.681Z,0.00
2023-01-05T06:30:00.706Z,0.00
2023-01-05T06:31:00.724Z,0.00
2023-01-05T06:32:00.760Z,0.00
2023-01-05T06:33:00.768Z,0.00
2023-01-05T06:34:00.789Z,0.00
2023-01-05T06:35:00.819Z,0.00
2023-01-05T06:36:00.847Z,0.00
2023-01-05T06:37:02.530Z,0.00
2023-01-05T06:38:00.886Z,0.00
2023-01-05T06:39:00.906Z,0.00
2023-01-05T06:40:00.922Z,0.00
2023-01-05T06:41:00.945Z,0.00
2023-01-05T06:42:00.976Z,0.00
2023-01-05T06:43:00.991Z,0.00
2023-01-05T06:44:01.020Z,0.00
2023-01-05T06:45:01.042Z,0.00
2023-01-05T06:46:01.077Z,0.00
2023-01-05T06:47:01.084Z,0.00
2023-01-05T06:48:01.157Z,0.00
2023-01-05T06:49:01.128Z,0.00
2023-01-05T06:50:01.149Z,0.00
2023-01-05T06:51:01.174Z,0.00
2023-01-05T06:52:01.196Z,0.00
2023-01-05T06:53:01.218Z,0.00
2023-01-05T06:54:01.244Z,0.00
2023-01-05T06:55:01.269Z,0.00
2023-01-05T06:56:01.281Z,0.00
2023-01-05T06:57:01.305Z,0.00
2023-01-05T06:58:01.585Z,0.00
2023-01-05T06:59:01.348Z,0.00
2023-01-05T07:00:01.371Z,0.00
2023-01-05T07:01:01.421Z,0.00
2023-01-05T07:02:01.489Z,0.00
2023-01-05T07:03:01.433Z,0.00
2023-01-05T07:04:01.606Z,0.00
2023-01-05T07:05:01.481Z,4.00
2023-01-05T07:06:01.504Z,4.00
2023-01-05T07:07:01.525Z,4.00
2023-01-05T07:08:01.545Z,4.00
2023-01-05T07:09:01.565Z,4.00
2023-01-05T07:10:01.604Z,4.00
2023-01-05T07:11:01.622Z,4.00
2023-01-05T07:12:01.650Z,4.00
2023-01-05T07:13:01.659Z,8.00
2023-01-05T07:14:01.682Z,8.00
2023-01-05T07:15:01.703Z,12.00
2023-01-05T07:16:01.785Z,12.00
2023-01-05T07:17:01.745Z,12.00
2023-01-05T07:18:01.777Z,16.00
2023-01-05T07:19:01.791Z,20.00
2023-01-05T07:20:01.808Z,16.00
2023-01-05T07:21:01.836Z,16.00
2023-01-05T07:22:01.856Z,20.00
2023-01-05T07:23:01.883Z,20.00
2023-01-05T07:24:01.904Z,32.00
2023-01-05T07:25:01.922Z,40.00
2023-01-05T07:26:01.958Z,40.00
2023-01-05T07:27:09.261Z,40.00
2023-01-05T07:28:01.988Z,40.00
2023-01-05T07:29:02.016Z,44.00
2023-01-05T07:30:02.036Z,60.00
2023-01-05T07:31:02.057Z,64.00
2023-01-05T07:32:02.144Z,56.00
2023-01-05T07:33:02.100Z,64.00
2023-01-05T07:34:02.125Z,56.00
2023-01-05T07:35:02.142Z,52.00
2023-01-05T07:36:02.199Z,56.00
2023-01-05T07:37:02.190Z,56.00
2023-01-05T07:38:02.249Z,88.00
2023-01-05T07:39:02.244Z,132.00
2023-01-05T07:40:02.255Z,168.00
2023-01-05T07:41:02.352Z,196.00
2023-01-05T07:42:02.303Z,216.00
2023-01-05T07:43:02.338Z,212.00
2023-01-05T07:44:02.345Z,220.00
2023-01-05T07:45:02.370Z,208.00
2023-01-05T07:46:02.469Z,172.00
2023-01-05T07:47:02.412Z,172.00
2023-01-05T07:48:02.527Z,196.00
2023-01-05T07:49:02.459Z,188.00
2023-01-05T07:50:02.474Z,152.00
2023-01-05T07:51:02.566Z,188.00
2023-01-05T07:52:02.536Z,228.00
2023-01-05T07:53:02.543Z,152.00
2023-01-05T07:54:02.566Z,132.00
2023-01-05T07:55:02.595Z,120.00
2023-01-05T07:56:02.614Z,124.00
2023-01-05T07:57:02.653Z,84.00
2023-01-05T07:58:02.659Z,124.00
2023-01-05T07:59:02.676Z,192.00
2023-01-05T08:00:02.721Z,216.00
2023-01-05T08:01:02.836Z,272.00
2023-01-05T08:02:03.105Z,228.00
2023-01-05T08:03:02.771Z,228.00
2023-01-05T08:04:02.880Z,196.00
2023-01-05T08:05:02.817Z,164.00
2023-01-05T08:06:02.835Z,276.00
2023-01-05T08:07:02.856Z,336.00
2023-01-05T08:08:02.876Z,332.00
2023-01-05T08:09:02.904Z,408.00
2023-01-05T08:10:02.919Z,560.00
2023-01-05T08:11:02.942Z,684.00
2023-01-05T08:12:02.969Z,708.00
2023-01-05T08:13:02.993Z,716.00
2023-01-05T08:14:03.164Z,764.00
2023-01-05T08:15:03.051Z,876.00
2023-01-05T08:16:03.213Z,936.00
2023-01-05T08:17:03.122Z,984.00
2023-01-05T08:18:03.100Z,980.00
2023-01-05T08:19:07.790Z,924.00
2023-01-05T08:20:03.155Z,880.00
2023-01-05T08:21:03.177Z,844.00
2023-01-05T08:22:03.185Z,832.00
2023-01-05T08:23:03.211Z,976.00
2023-01-05T08:24:03.235Z,1216.00
2023-01-05T08:25:03.257Z,1376.00
2023-01-05T08:26:03.282Z,1332.00
2023-01-05T08:27:03.337Z,1312.00
2023-01-05T08:28:03.324Z,1288.00
2023-01-05T08:29:03.367Z,1260.00
2023-01-05T08:30:03.369Z,1248.00
2023-01-05T08:31:03.404Z,1296.00
2023-01-05T08:32:03.432Z,1344.00
2023-01-05T08:33:03.445Z,1348.00
2023-01-05T08:34:03.459Z,1368.00
2023-01-05T08:35:03.474Z,1376.00
2023-01-05T08:36:03.510Z,1376.00
2023-01-05T08:37:03.527Z,1388.00
2023-01-05T08:38:03.553Z,1220.00
2023-01-05T08:39:03.577Z,1148.00
2023-01-05T08:40:03.591Z,1156.00
2023-01-05T08:41:03.616Z,1320.00
2023-01-05T08:42:03.633Z,1192.00
2023-01-05T08:43:03.655Z,1120.00
2023-01-05T08:44:03.688Z,1088.00
2023-01-05T08:45:03.741Z,1048.00
2023-01-05T08:46:03.736Z,1020.00
2023-01-05T08:47:03.756Z,1000.00
2023-01-05T08:48:03.767Z,896.00
2023-01-05T08:49:03.815Z,936.00
2023-01-05T08:50:03.825Z,1088.00
2023-01-05T08:51:03.851Z,1220.00
2023-01-05T08:52:03.877Z,1240.00
2023-01-05T08:53:03.879Z,1204.00
2023-01-05T08:54:03.912Z,1072.00
2023-01-05T08:55:03.925Z,928.00
2023-01-05T08:56:03.950Z,876.00
2023-01-05T08:57:03.970Z,796.00
2023-01-05T08:58:04.000Z,860.00
2023-01-05T08:59:04.028Z,964.00
2023-01-05T09:00:04.054Z,912.00
2023-01-05T09:01:04.204Z,844.00
2023-01-05T09:02:04.321Z,764.00
2023-01-05T09:03:04.245Z,692.00
2023-01-05T09:04:04.140Z,648.00
2023-01-05T09:05:04.148Z,684.00
2023-01-05T09:06:04.213Z,920.00
2023-01-05T09:07:04.196Z,924.00
2023-01-05T09:08:04.229Z,852.00
2023-01-05T09:09:04.265Z,836.00
2023-01-05T09:10:04.287Z,996.00
2023-01-05T09:11:04.283Z,1008.00
2023-01-05T09:12:04.313Z,992.00
2023-01-05T09:13:04.330Z,1196.00
2023-01-05T09:14:04.351Z,1384.00
2023-01-05T09:15:04.377Z,1448.00
2023-01-05T09:16:04.399Z,1240.00
2023-01-05T09:17:07.397Z,1200.00
2023-01-05T09:18:04.513Z,1000.00
2023-01-05T09:19:04.501Z,1188.00
2023-01-05T09:20:04.527Z,1228.00
2023-01-05T09:21:04.523Z,1284.00
2023-01-05T09:22:04.535Z,1060.00
2023-01-05T09:23:04.553Z,1012.00
2023-01-05T09:24:04.584Z,1124.00
2023-01-05T09:25:04.599Z,1424.00
2023-01-05T09:26:04.643Z,1596.00
2023-01-05T09:27:04.654Z,1452.00
2023-01-05T09:28:04.701Z,1292.00
2023-01-05T09:29:04.701Z,1292.00
2023-01-05T09:30:04.720Z,1240.00
2023-01-05T09:31:04.786Z,1448.00
2023-01-05T09:32:04.774Z,1788.00
2023-01-05T09:33:04.785Z,2044.00
2023-01-05T09:34:04.807Z,2204.00
2023-01-05T09:35:04.843Z,2068.00
2023-01-05T09:36:04.862Z,1784.00
2023-01-05T09:37:04.876Z,1792.00
2023-01-05T09:38:04.904Z,2448.00
2023-01-05T09:39:04.921Z,2364.00
2023-01-05T09:40:05.055Z,2296.00
2023-01-05T09:41:04.961Z,2812.00
2023-01-05T09:42:04.987Z,2904.00
2023-01-05T09:43:05.012Z,2824.00
2023-01-05T09:44:05.028Z,2592.00
2023-01-05T09:45:05.141Z,2536.00
2023-01-05T09:46:05.094Z,2108.00
2023-01-05T09:47:05.130Z,2048.00
2023-01-05T09:48:05.124Z,2196.00
2023-01-05T09:49:05.152Z,1916.00
2023-01-05T09:50:05.170Z,1760.00
2023-01-05T09:51:05.189Z,1760.00
2023-01-05T09:52:05.221Z,1596.00
2023-01-05T09:53:05.233Z,1412.00
2023-01-05T09:54:05.258Z,1180.00
2023-01-05T09:55:05.282Z,960.00
2023-01-05T09:56:05.405Z,988.00
2023-01-05T09:57:09.983Z,1088.00
2023-01-05T09:58:05.357Z,956.00
2023-01-05T09:59:05.377Z,844.00
2023-01-05T10:00:05.407Z,808.00
2023-01-05T10:01:05.450Z,776.00
2023-01-05T10:02:05.442Z,1060.00
2023-01-05T10:03:05.496Z,1252.00
2023-01-05T10:04:05.640Z,1316.00
2023-01-05T10:05:05.793Z,1704.00
2023-01-05T10:06:05.536Z,1352.00
2023-01-05T10:07:05.559Z,1156.00
2023-01-05T10:08:05.580Z,1332.00
2023-01-05T10:09:05.599Z,1684.00
2023-01-05T10:10:05.628Z,1604.00
2023-01-05T10:11:05.656Z,1556.00
2023-01-05T10:12:05.774Z,1824.00
2023-01-05T10:13:05.727Z,1784.00
2023-01-05T10:14:05.714Z,1616.00
2023-01-05T10:15:05.744Z,2064.00
2023-01-05T10:17:43.257Z,2696.00
2023-01-05T10:18:37.430Z,2684.00
2023-01-05T10:19:37.460Z,2604.00
2023-01-05T10:20:37.484Z,2540.00
2023-01-05T10:21:37.500Z,2472.00
2023-01-05T10:22:39.015Z,2012.00
2023-01-05T10:23:37.543Z,1492.00
2023-01-05T10:24:37.561Z,1392.00
2023-01-05T10:25:37.594Z,1440.00
2023-01-05T10:27:13.943Z,1476.00
2023-01-05T10:27:37.745Z,1784.00
2023-01-05T10:28:37.666Z,2188.00
2023-01-05T10:29:37.683Z,1932.00
2023-01-05T10:30:37.716Z,1436.00
2023-01-05T10:31:37.721Z,1144.00
2023-01-05T10:32:49.368Z,1036.00
2023-01-05T10:33:41.495Z,952.00
2023-01-05T10:34:37.797Z,1124.00
2023-01-05T10:36:03.386Z,908.00
2023-01-05T10:37:37.863Z,900.00
2023-01-05T10:38:37.885Z,924.00
2023-01-05T10:39:37.906Z,1124.00
2023-01-05T10:40:37.930Z,1420.00
2023-01-05T10:41:37.957Z,1288.00
2023-01-05T10:42:37.983Z,1160.00
2023-01-05T10:43:38.092Z,1344.00
2023-01-05T10:44:38.037Z,1408.00
2023-01-05T10:45:57.208Z,1488.00
2023-01-05T10:46:41.909Z,1516.00
2023-01-05T10:47:38.179Z,1124.00
2023-01-05T10:48:38.116Z,868.00
2023-01-05T10:49:38.134Z,824.00
2023-01-05T10:50:38.173Z,812.00
2023-01-05T10:51:38.186Z,1116.00
2023-01-05T10:52:38.214Z,1188.00
2023-01-05T10:53:38.249Z,1244.00
2023-01-05T10:54:38.262Z,1164.00
2023-01-05T10:55:38.271Z,1384.00
2023-01-05T10:56:38.292Z,1588.00
2023-01-05T10:57:38.343Z,1564.00
2023-01-05T10:58:38.340Z,1512.00
2023-01-05T10:59:38.529Z,1628.00
2023-01-05T11:00:38.398Z,1344.00
2023-01-05T11:01:38.561Z,944.00
2023-01-05T11:02:38.568Z,1048.00
2023-01-05T11:04:14.352Z,1496.00
2023-01-05T11:04:38.510Z,1616.00
2023-01-05T11:05:38.503Z,1556.00
2023-01-05T11:06:38.530Z,1352.00
2023-01-05T11:07:38.544Z,1644.00
2023-01-05T11:08:38.568Z,1332.00
2023-01-05T11:09:38.589Z,1512.00
2023-01-05T11:10:38.646Z,1768.00
2023-01-05T11:11:38.633Z,1696.00
2023-01-05T11:12:38.662Z,1992.00
2023-01-05T11:13:38.682Z,2232.00
2023-01-05T11:14:38.700Z,2368.00
2023-01-05T11:15:38.866Z,2344.00
2023-01-05T11:16:38.747Z,2412.00
2023-01-05T11:17:38.773Z,2680.00
2023-01-05T11:18:38.793Z,2864.00
2023-01-05T11:19:38.821Z,2404.00
2023-01-05T11:20:38.840Z,1928.00
2023-01-05T11:21:38.869Z,2436.00
2023-01-05T11:22:38.889Z,2812.00
2023-01-05T11:23:38.906Z,3232.00
2023-01-05T11:24:38.942Z,2800.00
2023-01-05T11:25:38.951Z,3052.00
2023-01-05T11:26:38.974Z,2952.00
2023-01-05T11:27:38.995Z,2432.00
2023-01-05T11:28:39.019Z,2556.00
2023-01-05T11:29:39.043Z,2752.00
2023-01-05T11:30:39.095Z,2924.00
2023-01-05T11:31:39.204Z,2416.00
2023-01-05T11:32:39.110Z,2292.00
2023-01-05T11:33:39.145Z,2432.00
2023-01-05T11:34:39.167Z,2548.00
2023-01-05T11:35:39.185Z,2684.00
2023-01-05T11:36:39.199Z,2752.00
2023-01-05T11:37:39.222Z,2808.00
2023-01-05T11:38:39.249Z,2908.00
2023-01-05T11:39:39.271Z,2772.00
2023-01-05T11:40:39.293Z,2688.00
2023-01-05T11:41:39.319Z,2652.00
2023-01-05T11:42:39.340Z,2612.00
2023-01-05T11:43:39.363Z,2688.00
2023-01-05T11:44:39.386Z,2844.00
2023-01-05T11:45:39.407Z,3524.00
2023-01-05T11:46:39.447Z,3564.00
2023-01-05T11:47:43.995Z,3064.00
2023-01-05T11:48:39.475Z,2572.00
2023-01-05T11:49:39.508Z,2140.00
2023-01-05T11:50:39.525Z,2020.00
2023-01-05T11:51:39.546Z,2504.00
2023-01-05T11:52:39.588Z,3328.00
2023-01-05T11:53:39.617Z,3656.00
2023-01-05T11:54:39.612Z,3316.00
2023-01-05T11:55:39.638Z,2808.00
2023-01-05T11:56:39.668Z,2284.00
2023-01-05T11:57:39.680Z,1764.00
2023-01-05T11:58:39.703Z,1256.00
2023-01-05T11:59:39.731Z,1232.00
2023-01-05T12:00:39.824Z,1308.00
2023-01-05T12:01:39.863Z,1476.00
2023-01-05T12:02:39.829Z,1852.00
2023-01-05T12:03:39.943Z,2664.00
2023-01-05T12:04:39.841Z,3296.00
2023-01-05T12:05:39.871Z,3224.00
2023-01-05T12:06:39.887Z,3300.00
2023-01-05T12:07:39.908Z,3352.00
2023-01-05T12:08:39.931Z,3916.00
2023-01-05T12:09:40.007Z,4340.00
2023-01-05T12:10:39.977Z,4440.00
2023-01-05T12:11:39.999Z,3648.00
2023-01-05T12:12:40.024Z,3216.00
2023-01-05T12:13:40.042Z,3432.00
2023-01-05T12:14:40.069Z,3224.00
2023-01-05T12:15:40.329Z,3288.00
2023-01-05T12:16:40.146Z,3652.00
2023-01-05T12:17:40.138Z,3976.00
2023-01-05T12:18:40.158Z,3964.00
2023-01-05T12:19:40.282Z,3904.00
2023-01-05T12:20:40.212Z,4148.00
2023-01-05T12:21:40.230Z,4112.00
2023-01-05T12:22:40.256Z,3816.00
2023-01-05T12:23:40.280Z,4220.00
2023-01-05T12:24:40.327Z,4576.00
2023-01-05T12:25:40.324Z,4460.00
2023-01-05T12:26:40.352Z,3636.00
2023-01-05T12:27:40.370Z,2220.00
2023-01-05T12:28:41.801Z,1468.00
2023-01-05T12:34:40.532Z,2720.00
2023-01-05T12:35:40.649Z,2496.00
2023-01-05T12:36:40.579Z,2860.00
2023-01-05T12:37:40.622Z,2916.00
2023-01-05T12:38:40.624Z,2996.00
2023-01-05T12:39:40.650Z,2636.00
2023-01-05T12:40:40.680Z,2048.00
2023-01-05T12:41:40.694Z,1500.00
2023-01-05T12:42:40.719Z,1640.00
2023-01-05T12:43:40.743Z,2240.00
2023-01-05T12:44:40.769Z,2400.00
2023-01-05T12:45:40.791Z,1332.00
2023-01-05T12:46:40.933Z,1148.00
2023-01-05T12:47:40.836Z,1180.00
2023-01-05T12:48:40.857Z,1424.00
2023-01-05T12:49:40.880Z,1980.00
2023-01-05T12:50:40.906Z,2604.00
2023-01-05T12:51:41.013Z,2660.00
2023-01-05T12:52:40.946Z,3148.00
2023-01-05T12:53:40.973Z,3352.00
2023-01-05T12:54:41.005Z,3344.00
2023-01-05T12:55:41.025Z,3340.00
2023-01-05T12:56:41.043Z,3344.00
2023-01-05T12:57:41.066Z,3260.00
2023-01-05T12:58:41.096Z,3156.00
2023-01-05T12:59:41.117Z,2948.00
2023-01-05T13:00:41.156Z,2804.00
2023-01-05T13:01:41.300Z,2684.00
2023-01-05T13:02:41.278Z,2536.00
2023-01-05T13:03:41.202Z,2372.00
2023-01-05T13:04:46.739Z,2188.00
2023-01-05T13:05:46.006Z,2044.00
2023-01-05T13:06:41.286Z,1804.00
2023-01-05T13:07:41.404Z,1532.00
2023-01-05T13:08:41.325Z,1456.00